createdAt,value
2022-11-29T00:01:49.351Z,36.22
2022-11-29T00:04:16.663Z,36.13
2022-11-29T00:06:43.842Z,38.40
2022-11-29T00:09:13.451Z,37.72
2022-11-29T00:12:01.471Z,36.72
2022-11-29T00:14:29.953Z,38.53
2022-11-29T00:17:02.993Z,37.38
2022-11-29T00:19:36.937Z,35.08
2022-11-29T00:22:05.008Z,37.83
2022-11-29T00:24:37.784Z,38.45
2022-11-29T00:27:05.118Z,33.85
2022-11-29T00:29:33.532Z,39.45
2022-11-29T00:32:02.981Z,39.17
2022-11-29T00:34:30.372Z,42.60
2022-11-29T00:36:57.748Z,39.75
2022-11-29T00:39:25.170Z,38.30
2022-11-29T00:41:57.470Z,34.15
2022-11-29T00:44:27.175Z,36.88
2022-11-29T00:46:54.532Z,39.22
2022-11-29T00:49:21.688Z,36.67
2022-11-29T00:51:49.053Z,37.92
2022-11-29T00:54:16.972Z,37.20
2022-11-29T00:56:44.427Z,38.45
2022-11-29T00:59:11.724Z,39.03
2022-11-29T01:01:41.069Z,40.03
2022-11-29T01:04:08.659Z,38.13
2022-11-29T01:06:35.971Z,41.58
2022-11-29T01:09:04.946Z,42.72
2022-11-29T01:11:32.589Z,44.00
2022-11-29T01:14:03.732Z,37.90
2022-11-29T01:16:32.488Z,36.97
2022-11-29T01:19:00.601Z,47.92
2022-11-29T01:21:29.643Z,39.40
2022-11-29T01:23:57.540Z,41.28
2022-11-29T01:26:28.316Z,39.67
2022-11-29T01:28:58.632Z,40.83
2022-11-29T01:31:32.327Z,36.88
2022-11-29T01:34:03.116Z,33.35
2022-11-29T01:36:36.807Z,37.95
2022-11-29T01:39:06.401Z,39.58
2022-11-29T01:41:37.333Z,39.03
2022-11-29T01:44:28.512Z,35.65
2022-11-29T01:46:57.562Z,41.15
2022-11-29T01:49:47.263Z,39.00
2022-11-29T01:52:31.187Z,39.40
2022-11-29T01:55:03.564Z,42.17
2022-11-29T01:57:34.118Z,37.97
2022-11-29T02:00:41.011Z,37.25
2022-11-29T02:03:17.296Z,37.45
2022-11-29T02:05:53.924Z,38.45
2022-11-29T02:08:31.878Z,37.08
2022-11-29T02:11:17.403Z,37.42
2022-11-29T02:14:23.212Z,37.08
2022-11-29T02:17:21.285Z,38.78
2022-11-29T02:20:27.776Z,34.53
2022-11-29T02:23:20.622Z,40.67
2022-11-29T02:26:22.015Z,32.15
2022-11-29T02:29:32.137Z,34.92
2022-11-29T02:32:31.052Z,40.67
2022-11-29T02:35:19.392Z,36.13
2022-11-29T02:38:30.091Z,35.33
2022-11-29T02:41:48.121Z,42.20
2022-11-29T02:44:47.757Z,32.08
2022-11-29T02:47:57.032Z,34.35
2022-11-29T02:50:42.285Z,40.53
2022-11-29T02:53:29.641Z,36.40
2022-11-29T02:56:50.646Z,37.50
2022-11-29T02:59:34.118Z,33.65
2022-11-29T03:02:32.655Z,34.03
2022-11-29T03:05:42.010Z,40.38
2022-11-29T03:08:54.799Z,38.08
2022-11-29T03:12:07.966Z,33.42
2022-11-29T03:15:23.784Z,38.20
2022-11-29T03:18:40.499Z,34.58
2022-11-29T03:21:33.252Z,38.22
2022-11-29T03:24:20.896Z,36.08
2022-11-29T03:27:02.371Z,37.92
2022-11-29T03:30:03.418Z,34.85
2022-11-29T03:32:45.594Z,41.47
2022-11-29T03:35:31.089Z,39.00
2022-11-29T03:38:40.919Z,35.38
2022-11-29T03:41:32.754Z,34.90
2022-11-29T03:44:50.375Z,34.35
2022-11-29T03:47:31.427Z,36.63
2022-11-29T03:50:14.565Z,36.83
2022-11-29T03:53:23.043Z,34.95
2022-11-29T03:55:58.473Z,33.85
2022-11-29T03:59:00.082Z,31.52
2022-11-29T04:01:57.176Z,33.65
2022-11-29T04:05:17.072Z,32.30
2022-11-29T04:08:22.373Z,32.83
2022-11-29T04:11:54.875Z,37.53
2022-11-29T04:15:15.790Z,35.15
2022-11-29T04:18:18.953Z,39.50
2022-11-29T04:21:19.739Z,39.85
2022-11-29T04:24:07.875Z,35.08
2022-11-29T04:27:11.751Z,35.28
2022-11-29T04:30:04.695Z,36.47
2022-11-29T04:33:32.426Z,37.35
2022-11-29T04:37:07.214Z,33.05
2022-11-29T04:39:54.205Z,35.55
2022-11-29T04:43:01.291Z,36.70
2022-11-29T04:46:01.297Z,35.45
2022-11-29T04:49:02.190Z,32.28
2022-11-29T04:52:32.049Z,35.17
2022-11-29T04:55:26.373Z,36.15
2022-11-29T04:58:37.787Z,33.00
2022-11-29T05:02:08.581Z,35.63
2022-11-29T05:04:56.641Z,33.83
2022-11-29T05:07:39.917Z,33.75
2022-11-29T05:11:06.888Z,34.53
2022-11-29T05:14:16.650Z,32.90
2022-11-29T05:16:54.063Z,35.90
2022-11-29T05:19:58.301Z,34.65
2022-11-29T05:22:40.586Z,34.83
2022-11-29T05:25:54.775Z,30.83
2022-11-29T05:28:51.119Z,40.38
2022-11-29T05:32:18.182Z,32.90
2022-11-29T05:35:22.256Z,35.88
2022-11-29T05:37:57.588Z,32.97
2022-11-29T05:41:08.739Z,33.70
2022-11-29T05:44:08.744Z,33.70
2022-11-29T05:47:10.159Z,31.00
2022-11-29T05:50:17.547Z,37.15
2022-11-29T05:52:56.432Z,40.05
2022-11-29T05:55:41.521Z,30.58
2022-11-29T05:58:50.197Z,32.40
2022-11-29T06:01:24.146Z,33.70
2022-11-29T06:04:20.269Z,30.17
2022-11-29T06:07:16.388Z,30.85
2022-11-29T06:09:48.716Z,32.50
2022-11-29T06:12:26.843Z,35.28
2022-11-29T06:16:16.793Z,29.75
2022-11-29T06:20:10.243Z,27.50
2022-11-29T06:23:28.893Z,32.38
2022-11-29T06:26:34.408Z,33.10
2022-11-29T06:29:25.751Z,31.83
2022-11-29T06:32:17.266Z,37.53
2022-11-29T06:35:07.721Z,29.95
2022-11-29T06:37:50.820Z,31.85
2022-11-29T06:40:18.491Z,30.88
2022-11-29T06:42:45.904Z,30.15
2022-11-29T06:45:16.009Z,25.08
2022-11-29T06:47:58.188Z,34.80
2022-11-29T06:50:56.059Z,28.58
2022-11-29T06:53:51.883Z,30.27
2022-11-29T06:56:44.285Z,34.83
2022-11-29T06:59:38.369Z,29.83
2022-11-29T07:02:28.104Z,27.92
2022-11-29T07:05:32.197Z,34.05
2022-11-29T07:08:27.178Z,31.83
2022-11-29T07:10:56.046Z,30.17
2022-11-29T07:13:23.990Z,26.65
2022-11-29T07:16:04.296Z,27.27
2022-11-29T07:19:20.834Z,30.45
2022-11-29T07:22:33.540Z,27.48
2022-11-29T07:25:51.308Z,31.95
2022-11-29T07:29:14.195Z,26.50
2022-11-29T07:32:17.993Z,27.52
2022-11-29T07:35:14.410Z,25.88
2022-11-29T07:38:42.143Z,26.80
2022-11-29T07:41:21.179Z,29.08
2022-11-29T07:44:16.945Z,25.05
2022-11-29T07:46:44.646Z,28.05
2022-11-29T07:49:12.213Z,23.08
2022-11-29T07:51:39.734Z,28.15
2022-11-29T07:54:07.394Z,30.85
2022-11-29T07:56:34.644Z,32.42
2022-11-29T07:59:01.953Z,28.42
2022-11-29T08:01:29.320Z,28.00
2022-11-29T08:03:56.543Z,31.45
2022-11-29T08:06:26.714Z,32.30
2022-11-29T08:08:57.508Z,30.45
2022-11-29T08:11:25.358Z,29.98
2022-11-29T08:14:05.162Z,30.80
2022-11-29T08:16:33.349Z,26.10
2022-11-29T08:19:00.759Z,27.73
2022-11-29T08:21:30.251Z,23.30
2022-11-29T08:23:57.592Z,25.83
2022-11-29T08:26:29.809Z,24.98
2022-11-29T08:28:58.998Z,21.15
2022-11-29T08:31:26.413Z,19.60
2022-11-29T08:33:54.031Z,21.13
2022-11-29T08:36:21.706Z,23.20
2022-11-29T08:38:49.114Z,21.65
2022-11-29T08:41:18.059Z,21.40
2022-11-29T08:43:45.859Z,19.05
2022-11-29T08:46:18.301Z,23.92
2022-11-29T08:48:47.733Z,23.23
2022-11-29T08:51:15.848Z,22.17
2022-11-29T08:53:43.456Z,18.98
2022-11-29T08:59:07.991Z,21.83
2022-11-29T09:01:35.370Z,21.95
2022-11-29T09:04:03.124Z,24.75
2022-11-29T09:06:40.940Z,21.33
2022-11-29T09:09:08.480Z,19.33
2022-11-29T09:11:36.878Z,17.92
2022-11-29T09:14:08.073Z,22.55
2022-11-29T09:16:38.478Z,19.15
2022-11-29T09:19:07.353Z,17.30
2022-11-29T09:21:38.648Z,13.05
2022-11-29T09:24:06.926Z,12.50
2022-11-29T09:26:37.996Z,10.50
2022-11-29T09:29:07.388Z,10.63
2022-11-29T09:31:35.891Z,10.52
2022-11-29T09:34:03.695Z,10.27
2022-11-29T09:36:39.794Z,10.40
2022-11-29T09:39:07.101Z,9.60
2022-11-29T09:42:07.624Z,13.10
2022-11-29T09:45:07.312Z,10.82
2022-11-29T09:48:22.011Z,12.05
2022-11-29T09:51:30.047Z,10.90
2022-11-29T09:54:24.936Z,12.68
2022-11-29T09:56:55.752Z,12.25
2022-11-29T09:59:41.062Z,12.32
2022-11-29T10:02:36.860Z,12.70
2022-11-29T10:05:26.274Z,13.70
2022-11-29T10:08:14.796Z,13.55
2022-11-29T10:10:54.873Z,16.23
2022-11-29T10:13:49.237Z,16.63
2022-11-29T10:16:32.500Z,15.82
2022-11-29T10:19:33.414Z,16.50
2022-11-29T10:22:31.390Z,16.92
2022-11-29T10:25:02.792Z,16.42
2022-11-29T10:27:57.287Z,15.63
2022-11-29T10:30:22.115Z,16.17
2022-11-29T10:33:00.698Z,16.67
2022-11-29T10:35:29.649Z,18.67
2022-11-29T10:41:09.441Z,20.52
2022-11-29T10:43:38.287Z,17.35
2022-11-29T10:46:17.252Z,16.10
2022-11-29T10:48:44.868Z,17.35
2022-11-29T10:51:17.927Z,18.25
2022-11-29T10:53:46.781Z,15.40
2022-11-29T10:56:29.332Z,16.48
2022-11-29T10:59:08.978Z,15.07
2022-11-29T11:01:42.411Z,16.45
2022-11-29T11:04:44.884Z,17.70
2022-11-29T11:07:40.937Z,14.40
2022-11-29T11:10:28.264Z,14.27
2022-11-29T11:13:20.315Z,14.38
2022-11-29T11:15:47.856Z,16.48
2022-11-29T11:18:26.566Z,15.35
2022-11-29T11:20:59.075Z,14.32
2022-11-29T11:23:42.382Z,14.57
2022-11-29T11:26:14.954Z,15.00
2022-11-29T11:29:00.676Z,16.98
2022-11-29T11:31:38.322Z,16.73
2022-11-29T11:34:24.369Z,15.30
2022-11-29T11:36:53.541Z,16.00
2022-11-29T11:39:24.137Z,13.23
2022-11-29T11:42:11.476Z,13.63
2022-11-29T11:44:50.139Z,11.85
2022-11-29T11:47:27.354Z,13.75
2022-11-29T11:50:04.782Z,14.60
2022-11-29T11:52:53.254Z,13.30
2022-11-29T11:55:40.913Z,15.93
2022-11-29T11:58:23.410Z,17.55
2022-11-29T12:01:04.499Z,15.00
2022-11-29T12:04:06.672Z,12.93
2022-11-29T12:07:38.739Z,12.02
2022-11-29T12:10:23.090Z,13.15
2022-11-29T12:12:53.567Z,14.73
2022-11-29T12:15:29.720Z,13.82
2022-11-29T12:18:16.538Z,12.10
2022-11-29T12:21:08.743Z,12.85
2022-11-29T12:24:02.695Z,12.77
2022-11-29T12:29:34.265Z,11.52
2022-11-29T12:32:52.300Z,11.57
2022-11-29T12:36:15.540Z,10.55
2022-11-29T12:39:39.255Z,12.25
2022-11-29T12:42:40.845Z,12.40
2022-11-29T12:45:52.389Z,11.70
2022-11-29T12:48:26.840Z,11.15
2022-11-29T12:51:09.938Z,10.98
2022-11-29T12:53:59.323Z,10.23
2022-11-29T12:56:48.181Z,9.20
2022-11-29T13:00:07.014Z,10.35
2022-11-29T13:02:59.131Z,12.00
2022-11-29T13:06:14.358Z,12.00
2022-11-29T13:09:23.795Z,12.25
2022-11-29T13:12:29.445Z,10.43
2022-11-29T13:15:18.044Z,11.70
2022-11-29T13:18:02.578Z,9.85
2022-11-29T13:20:59.641Z,9.50
2022-11-29T13:24:10.194Z,10.48
2022-11-29T13:26:43.440Z,8.57
2022-11-29T13:29:18.796Z,9.80
2022-11-29T13:31:47.805Z,10.85
2022-11-29T13:34:21.213Z,12.73
2022-11-29T13:37:10.803Z,9.40
2022-11-29T13:40:26.054Z,9.48
2022-11-29T13:43:44.057Z,9.18
2022-11-29T13:46:59.678Z,8.82
2022-11-29T13:50:44.040Z,8.85
2022-11-29T13:53:23.694Z,8.73
2022-11-29T13:56:01.413Z,10.18
2022-11-29T13:58:28.658Z,10.07
2022-11-29T14:01:13.228Z,9.68
2022-11-29T14:04:00.901Z,9.60
2022-11-29T14:06:40.679Z,11.98
2022-11-29T14:09:43.756Z,10.57
2022-11-29T14:12:39.532Z,12.38
2022-11-29T14:15:23.096Z,10.65
2022-11-29T14:17:59.216Z,10.93
2022-11-29T14:20:28.038Z,13.65
2022-11-29T14:23:06.574Z,10.43
2022-11-29T14:25:55.822Z,12.52
2022-11-29T14:28:48.342Z,10.40
2022-11-29T14:31:54.036Z,12.20
2022-11-29T14:34:33.440Z,12.93
2022-11-29T14:37:19.995Z,12.55
2022-11-29T14:39:54.648Z,11.20
2022-11-29T14:42:26.434Z,9.73
2022-11-29T14:45:04.854Z,9.77
2022-11-29T14:47:38.961Z,9.45
2022-11-29T14:50:10.488Z,9.02
2022-11-29T14:52:51.631Z,9.07
2022-11-29T14:55:24.594Z,9.98
2022-11-29T14:58:06.014Z,10.98
2022-11-29T15:00:56.141Z,9.38
2022-11-29T15:03:43.431Z,9.93
2022-11-29T15:06:30.214Z,10.13
2022-11-29T15:09:12.852Z,10.50
2022-11-29T15:11:59.643Z,12.07
2022-11-29T15:14:55.898Z,10.32
2022-11-29T15:17:47.972Z,10.20
2022-11-29T15:21:02.563Z,10.35
2022-11-29T15:23:44.116Z,10.63
2022-11-29T15:26:21.577Z,11.38
2022-11-29T15:28:52.527Z,11.82
2022-11-29T15:31:22.296Z,10.50
2022-11-29T15:33:51.589Z,15.98
2022-11-29T15:36:24.358Z,11.02
2022-11-29T15:39:04.349Z,14.45
2022-11-29T15:41:35.762Z,12.55
2022-11-29T15:44:21.361Z,15.52
2022-11-29T15:46:50.963Z,16.13
2022-11-29T15:49:38.282Z,11.52
2022-11-29T15:52:20.670Z,10.13
2022-11-29T15:55:02.140Z,11.65
2022-11-29T15:57:41.179Z,10.13
2022-11-29T16:00:20.285Z,10.82
2022-11-29T16:03:06.645Z,12.07
2022-11-29T16:05:39.180Z,11.07
2022-11-29T16:08:19.491Z,13.93
2022-11-29T16:10:53.015Z,12.38
2022-11-29T16:13:31.194Z,12.27
2022-11-29T16:16:10.243Z,11.88
2022-11-29T16:18:41.650Z,11.73
2022-11-29T16:21:32.680Z,11.85
2022-11-29T16:24:21.729Z,11.77
2022-11-29T16:26:51.090Z,14.95
2022-11-29T16:29:36.513Z,14.43
2022-11-29T16:32:41.370Z,16.27
2022-11-29T16:35:22.446Z,12.43
2022-11-29T16:37:50.955Z,15.95
2022-11-29T16:40:30.398Z,15.27
2022-11-29T16:43:19.666Z,13.40
2022-11-29T16:45:47.363Z,14.68
2022-11-29T16:48:24.600Z,16.20
2022-11-29T16:51:10.429Z,16.05
2022-11-29T16:53:48.473Z,16.88
2022-11-29T16:56:19.731Z,17.00
2022-11-29T16:59:24.862Z,15.90
2022-11-29T17:01:48.429Z,16.10
2022-11-29T17:04:24.473Z,16.08
2022-11-29T17:06:59.571Z,16.35
2022-11-29T17:09:36.222Z,15.85
2022-11-29T17:12:04.008Z,17.45
2022-11-29T17:14:32.844Z,16.50
2022-11-29T17:17:07.319Z,19.00
2022-11-29T17:19:34.864Z,18.48
2022-11-29T17:22:02.300Z,17.85
2022-11-29T17:24:29.651Z,19.17
2022-11-29T17:27:01.258Z,18.27
2022-11-29T17:29:33.186Z,18.75
2022-11-29T17:32:00.528Z,18.00
2022-11-29T17:34:27.707Z,18.05
2022-11-29T17:36:54.971Z,18.50
2022-11-29T17:39:24.517Z,18.98
2022-11-29T17:41:54.239Z,19.70
2022-11-29T17:44:21.624Z,24.13
2022-11-29T17:46:48.779Z,24.42
2022-11-29T17:49:18.716Z,32.30
2022-11-29T17:51:53.787Z,23.25
2022-11-29T17:54:23.267Z,22.48
2022-11-29T17:56:51.852Z,20.73
2022-11-29T17:59:19.443Z,23.50
2022-11-29T18:01:47.482Z,24.73
2022-11-29T18:04:30.889Z,22.67
2022-11-29T18:07:18.929Z,25.90
2022-11-29T18:09:53.630Z,23.67
2022-11-29T18:12:46.242Z,22.73
2022-11-29T18:15:13.569Z,22.05
2022-11-29T18:17:43.708Z,25.08
2022-11-29T18:20:13.984Z,24.08
2022-11-29T18:22:41.439Z,25.08
2022-11-29T18:25:37.624Z,26.20
2022-11-29T18:28:02.298Z,24.23
2022-11-29T18:31:11.049Z,25.00
2022-11-29T18:33:40.818Z,24.63
2022-11-29T18:36:36.935Z,24.40
2022-11-29T18:39:17.584Z,27.65
2022-11-29T18:41:52.591Z,27.55
2022-11-29T18:44:29.172Z,28.83
2022-11-29T18:46:58.770Z,26.27
2022-11-29T18:49:27.269Z,28.00
2022-11-29T18:51:58.261Z,28.25
2022-11-29T18:54:25.695Z,28.45
2022-11-29T18:56:55.257Z,27.33
2022-11-29T18:59:47.458Z,30.13
2022-11-29T19:02:19.975Z,30.48
2022-11-29T19:04:50.131Z,33.65
2022-11-29T19:07:18.650Z,37.00
2022-11-29T19:09:46.272Z,37.85
2022-11-29T19:12:38.362Z,33.95
2022-11-29T19:15:10.323Z,33.40
2022-11-29T19:17:42.945Z,32.75
2022-11-29T19:20:12.343Z,34.80
2022-11-29T19:22:42.174Z,37.35
2022-11-29T19:25:11.371Z,34.00
2022-11-29T19:27:45.227Z,41.22
2022-11-29T19:30:16.246Z,41.17
2022-11-29T19:32:43.971Z,41.38
2022-11-29T19:35:11.312Z,42.28
2022-11-29T19:37:38.654Z,47.75
2022-11-29T19:40:09.270Z,41.92
2022-11-29T19:42:51.909Z,43.30
2022-11-29T19:45:21.926Z,41.28
2022-11-29T19:47:51.199Z,39.03
2022-11-29T19:50:43.352Z,43.40
2022-11-29T19:53:13.608Z,48.53
2022-11-29T19:55:58.836Z,43.63
2022-11-29T19:59:04.561Z,42.38
2022-11-29T20:01:42.062Z,42.70
2022-11-29T20:04:14.041Z,44.95
2022-11-29T20:06:57.927Z,43.10
2022-11-29T20:09:28.605Z,42.05
2022-11-29T20:11:55.864Z,43.40
2022-11-29T20:14:23.204Z,40.78
2022-11-29T20:16:50.498Z,41.75
2022-11-29T20:19:18.148Z,38.88
2022-11-29T20:21:49.378Z,42.97
2022-11-29T20:24:19.512Z,39.60
2022-11-29T20:26:50.655Z,44.40
2022-11-29T20:29:27.038Z,42.75
2022-11-29T20:31:54.409Z,43.03
2022-11-29T20:34:24.891Z,44.88
2022-11-29T20:37:58.721Z,38.47
2022-11-29T20:41:19.405Z,39.25
2022-11-29T20:44:01.955Z,40.88
2022-11-29T20:46:30.124Z,38.38
2022-11-29T20:49:03.151Z,39.05
2022-11-29T20:51:53.273Z,36.20
2022-11-29T20:54:20.710Z,39.17
2022-11-29T20:56:47.985Z,38.33
2022-11-29T20:59:17.938Z,36.83
2022-11-29T21:01:45.452Z,37.10
2022-11-29T21:04:23.208Z,36.53
2022-11-29T21:06:58.410Z,38.40
2022-11-29T21:09:25.701Z,39.53
2022-11-29T21:11:57.185Z,38.33
2022-11-29T21:14:26.177Z,36.58
2022-11-29T21:16:54.675Z,35.92
2022-11-29T21:19:26.032Z,36.13
2022-11-29T21:22:08.562Z,37.78
2022-11-29T21:25:19.644Z,35.20
2022-11-29T21:27:51.812Z,36.33
2022-11-29T21:30:24.979Z,35.90
2022-11-29T21:32:56.491Z,36.35
2022-11-29T21:35:25.334Z,35.53
2022-11-29T21:38:00.516Z,37.22
2022-11-29T21:40:28.463Z,38.13
2022-11-29T21:42:58.220Z,37.42
2022-11-29T21:45:25.610Z,38.90
2022-11-29T21:47:55.361Z,38.22
2022-11-29T21:50:22.768Z,37.58
2022-11-29T21:52:52.563Z,40.50
2022-11-29T21:55:21.976Z,35.95
2022-11-29T21:57:49.330Z,39.33
2022-11-29T22:00:17.946Z,38.67
2022-11-29T22:02:45.720Z,35.67
2022-11-29T22:05:13.144Z,39.72
2022-11-29T22:07:40.524Z,41.75
2022-11-29T22:10:13.317Z,38.58
2022-11-29T22:12:51.801Z,36.17
2022-11-29T22:15:24.640Z,38.90
2022-11-29T22:17:55.881Z,39.47
2022-11-29T22:20:23.180Z,38.08
2022-11-29T22:22:53.504Z,39.92
2022-11-29T22:25:24.452Z,38.17
2022-11-29T22:27:51.762Z,39.17
2022-11-29T22:30:27.905Z,36.80
2022-11-29T22:32:57.128Z,37.13
2022-11-29T22:35:24.465Z,36.33
2022-11-29T22:37:51.759Z,37.65
2022-11-29T22:40:19.261Z,35.72
2022-11-29T22:42:52.614Z,35.53
2022-11-29T22:45:20.415Z,41.10
2022-11-29T22:47:48.074Z,44.13
2022-11-29T22:50:15.394Z,41.55
2022-11-29T22:52:42.822Z,40.55
2022-11-29T22:55:10.371Z,42.53
2022-11-29T22:57:37.562Z,44.28
2022-11-29T23:00:06.433Z,39.97
2022-11-29T23:02:33.851Z,40.28
2022-11-29T23:05:02.301Z,42.67
2022-11-29T23:07:29.753Z,45.03
2022-11-29T23:10:04.144Z,43.05
2022-11-29T23:12:31.513Z,42.58
2022-11-29T23:14:58.971Z,45.00
2022-11-29T23:17:27.374Z,45.90
2022-11-29T23:19:54.623Z,43.25
2022-11-29T23:22:22.430Z,42.90
2022-11-29T23:24:49.715Z,46.40
2022-11-29T23:27:17.183Z,45.35
2022-11-29T23:29:44.729Z,49.33
2022-11-29T23:32:12.043Z,45.78
2022-11-29T23:34:39.247Z,43.45
2022-11-29T23:37:06.534Z,44.10
2022-11-29T23:39:33.928Z,48.33
2022-11-29T23:42:01.057Z,47.30
2022-11-29T23:44:28.388Z,47.72
2022-11-29T23:46:55.713Z,48.80
2022-11-29T23:49:23.021Z,47.53
2022-11-29T23:51:50.605Z,49.10
2022-11-29T23:54:17.757Z,45.88
2022-11-29T23:56:45.086Z,53.58
2022-11-29T23:59:12.465Z,53.00
